createdAt,value
2022-11-04T00:00:13.059Z,12.30
2022-11-04T00:01:13.197Z,10.80
2022-11-04T00:02:13.044Z,12.40
2022-11-04T00:03:13.033Z,13.10
2022-11-04T00:04:12.993Z,12.10
2022-11-04T00:05:12.975Z,13.00
2022-11-04T00:06:12.968Z,12.60
2022-11-04T00:07:13.027Z,12.30
2022-11-04T00:08:12.959Z,11.80
2022-11-04T00:09:12.957Z,11.10
2022-11-04T00:10:12.930Z,11.80
2022-11-04T00:11:12.910Z,13.60
2022-11-04T00:12:12.904Z,11.60
2022-11-04T00:13:12.917Z,11.80
2022-11-04T00:14:12.895Z,11.20
2022-11-04T00:15:12.914Z,11.40
2022-11-04T00:16:12.897Z,12.10
2022-11-04T00:17:12.891Z,12.00
2022-11-04T00:18:12.875Z,13.60
2022-11-04T00:19:12.867Z,11.90
2022-11-04T00:20:12.851Z,10.50
2022-11-04T00:21:12.871Z,11.10
2022-11-04T00:22:12.833Z,12.30
2022-11-04T00:23:12.835Z,11.90
2022-11-04T00:24:12.809Z,11.60
2022-11-04T00:25:12.862Z,13.00
2022-11-04T00:26:12.846Z,9.90
2022-11-04T00:27:13.270Z,11.30
2022-11-04T00:28:12.824Z,11.40
2022-11-04T00:29:13.753Z,12.10
2022-11-04T00:30:12.782Z,11.90
2022-11-04T00:31:12.793Z,11.20
2022-11-04T00:32:12.788Z,11.70
2022-11-04T00:33:12.802Z,12.20
2022-11-04T00:34:12.762Z,11.60
2022-11-04T00:35:12.732Z,12.00
2022-11-04T00:36:12.723Z,11.70
2022-11-04T00:37:12.721Z,12.60
2022-11-04T00:38:12.720Z,12.70
2022-11-04T00:39:12.699Z,12.00
2022-11-04T00:40:12.746Z,11.00
2022-11-04T00:41:12.671Z,11.90
2022-11-04T00:42:12.689Z,12.10
2022-11-04T00:43:12.663Z,10.30
2022-11-04T00:44:12.680Z,10.60
2022-11-04T00:45:12.648Z,11.10
2022-11-04T00:46:12.677Z,10.80
2022-11-04T00:47:12.644Z,11.00
2022-11-04T00:48:12.663Z,11.80
2022-11-04T00:49:12.613Z,10.90
2022-11-04T00:50:12.607Z,10.70
2022-11-04T00:52:12.610Z,11.30
2022-11-04T00:53:12.576Z,12.50
2022-11-04T00:54:12.631Z,11.50
2022-11-04T00:55:12.575Z,10.20
2022-11-04T00:56:12.566Z,11.20
2022-11-04T00:57:12.578Z,9.70
2022-11-04T00:58:12.551Z,10.20
2022-11-04T00:59:14.567Z,10.30
2022-11-04T01:00:12.598Z,9.20
2022-11-04T01:01:12.666Z,10.30
2022-11-04T01:02:12.641Z,9.80
2022-11-04T01:03:12.564Z,10.30
2022-11-04T01:04:12.497Z,10.70
2022-11-04T01:05:12.502Z,10.80
2022-11-04T01:06:12.477Z,7.80
2022-11-04T01:07:12.475Z,9.40
2022-11-04T01:08:12.461Z,8.80
2022-11-04T01:09:12.468Z,8.50
2022-11-04T01:10:12.456Z,8.20
2022-11-04T01:11:12.466Z,8.80
2022-11-04T01:12:12.501Z,9.50
2022-11-04T01:13:12.419Z,9.00
2022-11-04T01:14:12.419Z,8.70
2022-11-04T01:15:12.437Z,7.60
2022-11-04T01:16:12.427Z,8.80
2022-11-04T01:17:12.390Z,7.90
2022-11-04T01:18:12.389Z,8.50
2022-11-04T01:19:12.370Z,8.80
2022-11-04T01:20:12.370Z,8.20
2022-11-04T01:21:12.375Z,7.90
2022-11-04T01:22:12.349Z,7.60
2022-11-04T01:23:12.346Z,6.80
2022-11-04T01:24:12.329Z,7.90
2022-11-04T01:25:12.315Z,7.60
2022-11-04T01:26:12.358Z,8.30
2022-11-04T01:27:12.325Z,7.50
2022-11-04T01:28:12.310Z,7.70
2022-11-04T01:29:12.290Z,6.50
2022-11-04T01:30:12.307Z,7.60
2022-11-04T01:31:12.270Z,8.10
2022-11-04T01:32:12.274Z,7.90
2022-11-04T01:33:12.343Z,8.10
2022-11-04T01:34:12.265Z,8.50
2022-11-04T01:35:12.230Z,7.30
2022-11-04T01:36:12.253Z,7.60
2022-11-04T01:37:12.303Z,7.90
2022-11-04T01:38:12.281Z,7.20
2022-11-04T01:39:12.205Z,7.80
2022-11-04T01:40:12.214Z,8.00
2022-11-04T01:41:12.178Z,8.40
2022-11-04T01:42:12.194Z,7.50
2022-11-04T01:43:12.212Z,9.00
2022-11-04T01:44:12.180Z,7.40
2022-11-04T01:45:12.165Z,9.00
2022-11-04T01:46:12.154Z,8.60
2022-11-04T01:47:12.148Z,7.20
2022-11-04T01:48:12.135Z,7.80
2022-11-04T01:49:12.244Z,7.50
2022-11-04T01:50:12.124Z,7.80
2022-11-04T01:51:12.127Z,7.50
2022-11-04T01:52:12.114Z,7.40
2022-11-04T01:53:12.303Z,7.90
2022-11-04T01:54:12.105Z,6.90
2022-11-04T01:55:12.119Z,7.90
2022-11-04T01:56:12.189Z,6.60
2022-11-04T01:57:15.100Z,7.60
2022-11-04T01:58:12.059Z,7.50
2022-11-04T01:59:12.164Z,7.10
2022-11-04T02:00:12.080Z,7.90
2022-11-04T02:01:12.082Z,7.80
2022-11-04T02:02:12.157Z,6.80
2022-11-04T02:03:12.095Z,7.20
2022-11-04T02:04:12.026Z,7.70
2022-11-04T02:05:11.998Z,7.20
2022-11-04T02:06:12.003Z,7.70
2022-11-04T02:07:12.013Z,7.20
2022-11-04T02:08:11.985Z,8.60
2022-11-04T02:09:11.976Z,7.70
2022-11-04T02:10:11.978Z,7.60
2022-11-04T02:11:11.971Z,7.00
2022-11-04T02:12:11.966Z,7.80
2022-11-04T02:13:12.195Z,6.80
2022-11-04T02:14:11.934Z,6.90
2022-11-04T02:15:11.936Z,7.80
2022-11-04T02:16:11.924Z,7.70
2022-11-04T02:17:11.927Z,7.10
2022-11-04T02:18:11.902Z,7.20
2022-11-04T02:19:11.894Z,6.80
2022-11-04T02:20:11.927Z,7.00
2022-11-04T02:21:11.984Z,8.00
2022-11-04T02:22:11.891Z,7.90
2022-11-04T02:23:11.935Z,7.60
2022-11-04T02:24:11.855Z,7.70
2022-11-04T02:25:11.868Z,7.20
2022-11-04T02:26:11.867Z,7.70
2022-11-04T02:27:11.836Z,7.50
2022-11-04T02:28:11.834Z,7.60
2022-11-04T02:29:11.820Z,7.10
2022-11-04T02:30:11.809Z,7.00
2022-11-04T02:31:11.859Z,7.00
2022-11-04T02:32:11.812Z,7.30
2022-11-04T02:33:12.050Z,7.30
2022-11-04T02:34:11.778Z,8.20
2022-11-04T02:35:11.769Z,7.60
2022-11-04T02:36:11.768Z,8.40
2022-11-04T02:37:11.755Z,7.10
2022-11-04T02:38:11.756Z,7.00
2022-11-04T02:39:11.767Z,7.40
2022-11-04T02:40:11.746Z,7.10
2022-11-04T02:41:11.722Z,6.80
2022-11-04T02:42:11.723Z,8.50
2022-11-04T02:43:12.021Z,6.70
2022-11-04T02:44:11.727Z,8.00
2022-11-04T02:45:11.707Z,7.30
2022-11-04T02:46:11.693Z,6.30
2022-11-04T02:47:11.717Z,6.80
2022-11-04T02:48:11.666Z,5.80
2022-11-04T02:49:11.688Z,6.20
2022-11-04T02:50:11.651Z,6.80
2022-11-04T02:51:11.670Z,5.40
2022-11-04T02:52:11.655Z,6.00
2022-11-04T02:53:12.052Z,5.50
2022-11-04T02:54:11.632Z,4.90
2022-11-04T02:55:11.637Z,5.00
2022-11-04T02:56:11.620Z,6.30
2022-11-04T02:57:11.601Z,5.00
2022-11-04T02:58:11.597Z,5.80
2022-11-04T02:59:11.579Z,6.30
2022-11-04T03:00:11.627Z,5.40
2022-11-04T03:01:11.602Z,5.60
2022-11-04T03:02:11.711Z,6.50
2022-11-04T03:03:11.759Z,5.80
2022-11-04T03:04:11.544Z,5.50
2022-11-04T03:05:11.537Z,5.00
2022-11-04T03:06:11.559Z,5.80
2022-11-04T03:08:11.735Z,5.20
2022-11-04T03:09:11.499Z,5.70
2022-11-04T03:10:11.490Z,5.10
2022-11-04T03:11:11.499Z,5.40
2022-11-04T03:12:11.534Z,5.20
2022-11-04T03:13:11.478Z,6.20
2022-11-04T03:14:11.467Z,5.80
2022-11-04T03:15:11.448Z,5.30
2022-11-04T03:16:11.451Z,6.20
2022-11-04T03:17:11.441Z,6.00
2022-11-04T03:18:11.571Z,5.30
2022-11-04T03:19:11.428Z,5.20
2022-11-04T03:20:11.421Z,5.50
2022-11-04T03:21:11.409Z,5.90
2022-11-04T03:22:11.411Z,5.50
2022-11-04T03:23:11.391Z,5.00
2022-11-04T03:24:11.479Z,5.70
2022-11-04T03:25:11.410Z,4.50
2022-11-04T03:26:11.360Z,4.70
2022-11-04T03:27:11.352Z,4.70
2022-11-04T03:28:11.703Z,4.10
2022-11-04T03:29:11.348Z,4.40
2022-11-04T03:30:11.479Z,5.10
2022-11-04T03:31:11.322Z,4.70
2022-11-04T03:32:11.315Z,5.20
2022-11-04T03:33:11.628Z,4.60
2022-11-04T03:34:11.310Z,4.90
2022-11-04T03:35:11.360Z,4.40
2022-11-04T03:36:11.288Z,4.00
2022-11-04T03:37:11.274Z,3.60
2022-11-04T03:38:11.280Z,4.00
2022-11-04T03:39:11.328Z,4.00
2022-11-04T03:40:11.246Z,3.80
2022-11-04T03:41:11.376Z,3.80
2022-11-04T03:42:11.228Z,4.80
2022-11-04T03:43:11.607Z,4.10
2022-11-04T03:44:11.210Z,3.70
2022-11-04T03:45:11.201Z,3.70
2022-11-04T03:46:11.213Z,3.90
2022-11-04T03:47:11.229Z,3.90
2022-11-04T03:48:11.189Z,4.90
2022-11-04T03:49:11.181Z,3.50
2022-11-04T03:50:11.173Z,4.70
2022-11-04T03:51:11.170Z,4.70
2022-11-04T03:52:11.163Z,3.70
2022-11-04T03:53:11.595Z,4.30
2022-11-04T03:54:11.131Z,4.80
2022-11-04T03:55:11.178Z,3.50
2022-11-04T03:56:11.143Z,4.30
2022-11-04T03:57:11.124Z,4.40
2022-11-04T03:58:11.419Z,4.00
2022-11-04T03:59:11.388Z,4.40
2022-11-04T04:00:11.090Z,3.50
2022-11-04T04:01:11.130Z,3.60
2022-11-04T04:02:11.095Z,4.10
2022-11-04T04:03:11.073Z,3.50
2022-11-04T04:04:11.061Z,3.60
2022-11-04T04:05:15.903Z,3.80
2022-11-04T04:06:12.039Z,3.70
2022-11-04T04:07:11.035Z,4.50
2022-11-04T04:08:11.521Z,3.70
2022-11-04T04:09:11.014Z,3.90
2022-11-04T04:10:10.998Z,4.90
2022-11-04T04:11:11.036Z,4.90
2022-11-04T04:12:10.990Z,4.10
2022-11-04T04:13:10.986Z,5.10
2022-11-04T04:14:11.000Z,4.20
2022-11-04T04:15:10.968Z,4.40
2022-11-04T04:16:10.953Z,4.30
2022-11-04T04:17:10.961Z,3.60
2022-11-04T04:18:11.249Z,3.90
2022-11-04T04:19:10.935Z,3.70
2022-11-04T04:20:10.944Z,5.30
2022-11-04T04:21:10.932Z,4.60
2022-11-04T04:22:10.903Z,3.50
2022-11-04T04:23:10.899Z,3.40
2022-11-04T04:24:10.919Z,5.10
2022-11-04T04:25:10.884Z,3.80
2022-11-04T04:26:10.876Z,4.20
2022-11-04T04:27:10.873Z,4.10
2022-11-04T04:28:11.206Z,4.50
2022-11-04T04:29:10.911Z,4.10
2022-11-04T04:30:10.894Z,4.60
2022-11-04T04:31:10.853Z,3.40
2022-11-04T04:32:10.932Z,4.60
2022-11-04T04:33:10.828Z,3.10
2022-11-04T04:34:10.830Z,3.60
2022-11-04T04:35:10.837Z,4.00
2022-11-04T04:36:10.795Z,5.20
2022-11-04T04:37:10.797Z,3.70
2022-11-04T04:38:11.047Z,3.90
2022-11-04T04:39:10.803Z,4.40
2022-11-04T04:40:10.767Z,4.30
2022-11-04T04:41:10.778Z,4.20
2022-11-04T04:42:10.763Z,3.40
2022-11-04T04:43:11.242Z,3.30
2022-11-04T04:44:10.745Z,3.70
2022-11-04T04:45:10.743Z,3.90
2022-11-04T04:46:10.732Z,4.00
2022-11-04T04:47:10.748Z,4.10
2022-11-04T04:48:10.728Z,3.90
2022-11-04T04:49:10.719Z,3.80
2022-11-04T04:50:10.695Z,3.40
2022-11-04T04:51:10.690Z,3.40
2022-11-04T04:52:10.702Z,3.80
2022-11-04T04:53:11.137Z,2.50
2022-11-04T04:54:10.656Z,3.40
2022-11-04T04:55:10.674Z,3.40
2022-11-04T04:56:10.831Z,3.90
2022-11-04T04:57:10.650Z,3.70
2022-11-04T04:58:10.631Z,4.30
2022-11-04T04:59:10.636Z,3.70
2022-11-04T05:00:10.667Z,4.10
2022-11-04T05:01:10.672Z,5.70
2022-11-04T05:02:10.875Z,4.70
2022-11-04T05:03:10.947Z,4.80
2022-11-04T05:04:10.576Z,4.80
2022-11-04T05:05:10.637Z,6.10
2022-11-04T05:06:10.565Z,5.00
2022-11-04T05:07:10.553Z,5.20
2022-11-04T05:08:10.879Z,4.30
2022-11-04T05:09:10.555Z,5.10
2022-11-04T05:10:10.537Z,4.70
2022-11-04T05:11:10.553Z,4.60
2022-11-04T05:12:10.538Z,6.40
2022-11-04T05:13:10.521Z,6.20
2022-11-04T05:14:10.522Z,6.10
2022-11-04T05:15:10.498Z,5.10
2022-11-04T05:16:10.485Z,5.70
2022-11-04T05:17:10.481Z,5.40
2022-11-04T05:18:10.891Z,6.10
2022-11-04T05:19:10.467Z,5.40
2022-11-04T05:20:10.446Z,5.90
2022-11-04T05:21:10.443Z,4.90
2022-11-04T05:22:10.439Z,7.00
2022-11-04T05:23:10.436Z,4.80
2022-11-04T05:24:10.443Z,4.80
2022-11-04T05:25:10.418Z,4.80
2022-11-04T05:26:10.463Z,5.10
2022-11-04T05:27:10.429Z,4.70
2022-11-04T05:28:10.740Z,5.30
2022-11-04T05:29:10.452Z,4.30
2022-11-04T05:30:10.406Z,4.40
2022-11-04T05:31:10.375Z,5.80
2022-11-04T05:32:10.379Z,5.00
2022-11-04T05:33:10.746Z,4.90
2022-11-04T05:34:10.378Z,5.50
2022-11-04T05:35:10.338Z,12.70
2022-11-04T05:36:10.332Z,6.50
2022-11-04T05:37:10.322Z,6.00
2022-11-04T05:38:10.308Z,4.30
2022-11-04T05:39:10.297Z,7.40
2022-11-04T05:40:10.317Z,7.30
2022-11-04T05:41:10.287Z,6.90
2022-11-04T05:42:10.285Z,6.80
2022-11-04T05:43:10.663Z,6.10
2022-11-04T05:44:10.266Z,7.00
2022-11-04T05:45:10.257Z,6.80
2022-11-04T05:46:10.271Z,6.50
2022-11-04T05:47:10.254Z,7.10
2022-11-04T05:48:10.292Z,7.30
2022-11-04T05:49:10.226Z,12.10
2022-11-04T05:50:10.233Z,9.70
2022-11-04T05:51:10.207Z,9.80
2022-11-04T05:52:10.209Z,8.60
2022-11-04T05:53:10.453Z,7.40
2022-11-04T05:54:10.210Z,7.70
2022-11-04T05:55:10.176Z,4.90
2022-11-04T05:56:10.219Z,4.90
2022-11-04T05:57:10.165Z,4.70
2022-11-04T05:58:10.747Z,6.80
2022-11-04T05:59:10.218Z,5.60
2022-11-04T06:00:10.132Z,7.20
2022-11-04T06:01:10.123Z,6.70
2022-11-04T06:02:10.250Z,8.00
2022-11-04T06:03:13.549Z,7.30
2022-11-04T06:04:11.130Z,6.50
2022-11-04T06:05:10.284Z,5.30
2022-11-04T06:06:10.402Z,6.30
2022-11-04T06:07:10.305Z,5.20
2022-11-04T06:08:10.419Z,5.40
2022-11-04T06:09:10.094Z,5.80
2022-11-04T06:10:10.459Z,5.00
2022-11-04T06:11:10.312Z,6.20
2022-11-04T06:12:10.624Z,4.70
2022-11-04T06:13:10.027Z,4.80
2022-11-04T06:14:14.679Z,5.10
2022-11-04T06:15:11.786Z,6.20
2022-11-04T06:16:09.995Z,5.00
2022-11-04T06:17:10.269Z,6.10
2022-11-04T06:18:10.372Z,5.50
2022-11-04T06:19:15.082Z,5.40
2022-11-04T06:20:11.559Z,5.10
2022-11-04T06:21:10.063Z,5.80
2022-11-04T06:22:13.331Z,6.80
2022-11-04T06:23:12.773Z,6.30
2022-11-04T06:24:09.985Z,5.70
2022-11-04T06:25:09.971Z,6.30
2022-11-04T06:26:09.923Z,5.50
2022-11-04T06:27:09.916Z,6.00
2022-11-04T06:28:10.266Z,6.20
2022-11-04T06:29:09.918Z,6.30
2022-11-04T06:30:09.875Z,5.80
2022-11-04T06:31:09.879Z,6.00
2022-11-04T06:32:09.860Z,6.30
2022-11-04T06:33:09.863Z,5.50
2022-11-04T06:34:09.855Z,6.30
2022-11-04T06:35:09.961Z,6.70
2022-11-04T06:36:09.830Z,5.10
2022-11-04T06:37:09.830Z,6.20
2022-11-04T06:38:10.279Z,6.60
2022-11-04T06:39:09.811Z,5.90
2022-11-04T06:40:09.804Z,5.30
2022-11-04T06:41:09.826Z,5.80
2022-11-04T06:42:09.777Z,6.30
2022-11-04T06:43:10.164Z,6.10
2022-11-04T06:44:09.834Z,5.50
2022-11-04T06:45:09.758Z,6.80
2022-11-04T06:46:09.745Z,6.40
2022-11-04T06:47:09.768Z,6.20
2022-11-04T06:48:09.737Z,6.00
2022-11-04T06:49:09.739Z,8.20
2022-11-04T06:50:09.733Z,7.10
2022-11-04T06:51:09.879Z,7.40
2022-11-04T06:52:09.708Z,8.50
2022-11-04T06:53:10.042Z,7.60
2022-11-04T06:54:09.708Z,7.10
2022-11-04T06:55:09.677Z,6.00
2022-11-04T06:56:09.674Z,6.30
2022-11-04T06:57:09.678Z,5.60
2022-11-04T06:58:09.647Z,6.90
2022-11-04T06:59:09.666Z,7.90
2022-11-04T07:00:09.642Z,6.90
2022-11-04T07:01:14.815Z,6.00
2022-11-04T07:02:10.785Z,6.10
2022-11-04T07:03:09.964Z,4.90
2022-11-04T07:04:09.627Z,5.30
2022-11-04T07:05:09.654Z,4.90
2022-11-04T07:06:09.784Z,5.30
2022-11-04T07:07:09.723Z,5.40
2022-11-04T07:08:09.916Z,5.30
2022-11-04T07:09:09.554Z,5.50
2022-11-04T07:10:09.548Z,6.00
2022-11-04T07:11:09.560Z,6.00
2022-11-04T07:12:09.530Z,4.80
2022-11-04T07:13:09.525Z,4.70
2022-11-04T07:14:09.535Z,5.60
2022-11-04T07:15:09.518Z,5.30
2022-11-04T07:16:09.504Z,8.50
2022-11-04T07:17:09.538Z,7.70
2022-11-04T07:18:10.880Z,11.20
2022-11-04T07:19:09.479Z,13.60
2022-11-04T07:20:09.472Z,12.60
2022-11-04T07:21:10.422Z,22.00
2022-11-04T07:22:09.547Z,31.10
2022-11-04T07:23:09.442Z,90.30
2022-11-04T07:24:09.457Z,73.70
2022-11-04T07:25:09.426Z,73.30
2022-11-04T07:26:09.414Z,55.80
2022-11-04T07:27:09.415Z,40.20
2022-11-04T07:28:09.795Z,40.50
2022-11-04T07:29:09.396Z,24.80
2022-11-04T07:30:09.451Z,24.30
2022-11-04T07:31:09.381Z,14.60
2022-11-04T07:32:09.371Z,14.50
2022-11-04T07:33:09.370Z,18.90
2022-11-04T07:34:09.371Z,9.90
2022-11-04T07:35:09.365Z,10.90
2022-11-04T07:36:09.383Z,10.70
2022-11-04T07:37:09.358Z,8.90
2022-11-04T07:38:09.497Z,8.90
2022-11-04T07:39:09.313Z,7.60
2022-11-04T07:40:09.310Z,7.50
2022-11-04T07:41:09.291Z,7.20
2022-11-04T07:42:09.385Z,7.20
2022-11-04T07:43:09.286Z,7.30
2022-11-04T07:44:09.298Z,8.10
2022-11-04T07:45:09.279Z,6.50
2022-11-04T07:46:09.271Z,8.30
2022-11-04T07:47:09.266Z,6.00
2022-11-04T07:48:09.679Z,5.90
2022-11-04T07:49:09.329Z,7.30
2022-11-04T07:50:11.210Z,9.00
2022-11-04T07:51:09.246Z,6.90
2022-11-04T07:52:09.241Z,7.40
2022-11-04T07:53:09.661Z,6.00
2022-11-04T07:54:09.263Z,6.90
2022-11-04T07:55:09.207Z,6.90
2022-11-04T07:56:09.193Z,6.40
2022-11-04T07:57:09.202Z,6.80
2022-11-04T07:58:09.175Z,8.80
2022-11-04T07:59:09.178Z,7.20
2022-11-04T08:00:09.193Z,5.20
2022-11-04T08:01:09.182Z,8.60
2022-11-04T08:02:09.286Z,7.00
2022-11-04T08:03:10.312Z,9.50
2022-11-04T08:04:09.144Z,9.00
2022-11-04T08:05:09.138Z,7.80
2022-11-04T08:06:09.127Z,8.40
2022-11-04T08:07:09.105Z,7.30
2022-11-04T08:08:09.117Z,7.40
2022-11-04T08:09:09.127Z,6.30
2022-11-04T08:10:09.100Z,6.90
2022-11-04T08:11:14.300Z,7.60
2022-11-04T08:12:10.104Z,6.20
2022-11-04T08:13:09.367Z,6.20
2022-11-04T08:14:09.057Z,8.20
2022-11-04T08:15:09.040Z,10.70
2022-11-04T08:16:09.117Z,8.70
2022-11-04T08:17:09.058Z,10.00
2022-11-04T08:18:09.040Z,10.30
2022-11-04T08:19:09.086Z,9.90
2022-11-04T08:20:09.018Z,9.90
2022-11-04T08:21:09.059Z,10.70
2022-11-04T08:22:08.999Z,10.40
2022-11-04T08:23:09.276Z,9.70
2022-11-04T08:24:08.977Z,9.80
2022-11-04T08:25:08.999Z,8.90
2022-11-04T08:26:08.944Z,6.40
2022-11-04T08:27:09.007Z,8.40
2022-11-04T08:28:08.935Z,10.40
2022-11-04T08:29:08.940Z,7.10
2022-11-04T08:30:08.942Z,8.20
2022-11-04T08:31:08.932Z,6.40
2022-11-04T08:32:08.922Z,7.60
2022-11-04T08:33:09.172Z,6.10
2022-11-04T08:34:08.951Z,5.70
2022-11-04T08:35:08.887Z,8.40
2022-11-04T08:36:08.909Z,7.40
2022-11-04T08:37:08.851Z,9.40
2022-11-04T08:38:08.849Z,8.60
2022-11-04T08:39:10.878Z,9.40
2022-11-04T08:40:08.885Z,9.10
2022-11-04T08:41:08.830Z,10.50
2022-11-04T08:42:08.863Z,8.10
2022-11-04T08:43:09.181Z,9.20
2022-11-04T08:44:08.796Z,9.20
2022-11-04T08:45:08.790Z,6.70
2022-11-04T08:46:08.786Z,8.00
2022-11-04T08:47:08.776Z,7.50
2022-11-04T08:48:09.077Z,7.50
2022-11-04T08:49:11.250Z,7.60
2022-11-04T08:50:08.821Z,8.40
2022-11-04T08:51:08.752Z,6.50
2022-11-04T08:52:08.737Z,7.00
2022-11-04T08:53:08.979Z,5.20
2022-11-04T08:54:08.738Z,7.20
2022-11-04T08:55:08.713Z,6.30
2022-11-04T08:56:08.694Z,6.30
2022-11-04T08:57:08.696Z,6.00
2022-11-04T08:58:09.070Z,6.80
2022-11-04T08:59:08.762Z,6.10
2022-11-04T09:00:08.699Z,5.30
2022-11-04T09:01:08.659Z,8.30
2022-11-04T09:02:08.677Z,5.50
2022-11-04T09:03:09.048Z,6.90
2022-11-04T09:04:08.749Z,5.10
2022-11-04T09:05:08.638Z,6.50
2022-11-04T09:06:08.629Z,6.40
2022-11-04T09:07:08.619Z,7.70
2022-11-04T09:08:08.598Z,6.10
2022-11-04T09:09:08.611Z,5.90
2022-11-04T09:10:08.597Z,5.80
2022-11-04T09:11:08.613Z,7.70
2022-11-04T09:12:08.645Z,6.70
2022-11-04T09:13:08.874Z,6.10
2022-11-04T09:14:08.557Z,7.90
2022-11-04T09:15:08.558Z,8.20
2022-11-04T09:16:08.554Z,7.00
2022-11-04T09:17:08.615Z,5.70
2022-11-04T09:18:08.529Z,6.60
2022-11-04T09:19:08.577Z,6.90
2022-11-04T09:20:08.510Z,7.10
2022-11-04T09:21:08.510Z,5.50
2022-11-04T09:22:08.494Z,7.00
2022-11-04T09:23:10.058Z,7.60
2022-11-04T09:24:08.485Z,6.20
2022-11-04T09:25:08.484Z,5.30
2022-11-04T09:26:08.458Z,7.80
2022-11-04T09:27:08.493Z,7.20
2022-11-04T09:28:08.577Z,6.00
2022-11-04T09:29:08.484Z,8.40
2022-11-04T09:30:08.462Z,6.00
2022-11-04T09:31:08.573Z,6.60
2022-11-04T09:32:08.441Z,6.60
2022-11-04T09:33:08.757Z,7.30
2022-11-04T09:34:08.414Z,6.40
2022-11-04T09:35:08.434Z,6.30
2022-11-04T09:36:08.380Z,7.00
2022-11-04T09:37:08.497Z,8.10
2022-11-04T09:38:08.370Z,7.80
2022-11-04T09:39:08.376Z,6.60
2022-11-04T09:40:08.353Z,7.00
2022-11-04T09:41:08.348Z,5.90
2022-11-04T09:42:08.367Z,8.30
2022-11-04T09:43:08.687Z,6.40
2022-11-04T09:44:08.565Z,7.10
2022-11-04T09:45:23.826Z,6.40
2022-11-04T09:46:09.337Z,6.70
2022-11-04T09:47:08.320Z,7.70
2022-11-04T09:48:08.326Z,5.60
2022-11-04T09:49:08.285Z,6.00
2022-11-04T09:50:08.278Z,6.70
2022-11-04T09:51:20.939Z,7.80
2022-11-04T09:52:09.263Z,7.20
2022-11-04T09:53:08.674Z,7.80
2022-11-04T09:54:08.245Z,7.80
2022-11-04T09:55:08.233Z,9.10
2022-11-04T09:56:08.228Z,9.00
2022-11-04T09:57:08.264Z,9.00
2022-11-04T09:58:08.323Z,7.70
2022-11-04T09:59:08.196Z,5.60
2022-11-04T10:00:08.264Z,7.20
2022-11-04T10:01:08.216Z,5.20
2022-11-04T10:02:08.230Z,8.20
2022-11-04T10:03:08.480Z,7.60
2022-11-04T10:04:08.154Z,8.00
2022-11-04T10:05:08.161Z,7.10
2022-11-04T10:06:08.175Z,7.80
2022-11-04T10:07:08.161Z,7.90
2022-11-04T10:08:08.116Z,7.40
2022-11-04T10:09:08.111Z,7.10
2022-11-04T10:10:08.106Z,7.00
2022-11-04T10:11:08.109Z,6.70
2022-11-04T10:12:08.111Z,7.90
2022-11-04T10:13:08.372Z,7.20
2022-11-04T10:14:08.109Z,7.90
2022-11-04T10:15:08.168Z,7.30
2022-11-04T10:16:08.599Z,7.60
2022-11-04T10:17:08.301Z,8.40
2022-11-04T10:18:09.160Z,8.80
2022-11-04T10:19:08.043Z,7.90
2022-11-04T10:20:08.026Z,8.50
2022-11-04T10:21:08.028Z,8.00
2022-11-04T10:22:08.011Z,6.10
2022-11-04T10:23:08.344Z,6.60
2022-11-04T10:24:08.059Z,7.90
2022-11-04T10:25:07.997Z,7.10
2022-11-04T10:26:07.974Z,9.10
2022-11-04T10:27:07.978Z,8.20
2022-11-04T10:28:07.956Z,7.80
2022-11-04T10:29:07.956Z,8.00
2022-11-04T10:30:07.967Z,7.20
2022-11-04T10:31:07.928Z,7.60
2022-11-04T10:32:08.052Z,7.40
2022-11-04T10:33:08.285Z,7.40
2022-11-04T10:34:07.922Z,9.70
2022-11-04T10:35:07.910Z,7.50
2022-11-04T10:36:07.907Z,6.90
2022-11-04T10:37:07.892Z,7.40
2022-11-04T10:38:08.484Z,7.40
2022-11-04T10:39:07.893Z,6.30
2022-11-04T10:40:08.002Z,7.80
2022-11-04T10:41:07.857Z,6.80
2022-11-04T10:42:07.863Z,8.80
2022-11-04T10:43:08.171Z,8.00
2022-11-04T10:44:07.883Z,7.20
2022-11-04T10:45:08.497Z,7.30
2022-11-04T10:46:07.838Z,6.50
2022-11-04T10:47:07.833Z,6.40
2022-11-04T10:48:07.920Z,7.10
2022-11-04T10:49:07.791Z,6.80
2022-11-04T10:50:27.842Z,6.60
2022-11-04T10:51:09.017Z,6.70
2022-11-04T10:52:07.770Z,7.20
2022-11-04T10:53:08.169Z,7.20
2022-11-04T10:54:07.749Z,6.20
2022-11-04T10:55:07.750Z,6.80
2022-11-04T10:56:07.791Z,7.20
2022-11-04T10:57:08.092Z,6.70
2022-11-04T10:58:07.790Z,9.30
2022-11-04T10:59:07.711Z,7.30
2022-11-04T11:00:07.717Z,7.50
2022-11-04T11:01:12.530Z,7.90
2022-11-04T11:02:08.785Z,7.30
2022-11-04T11:03:07.953Z,7.80
2022-11-04T11:04:07.683Z,6.00
2022-11-04T11:05:07.777Z,6.30
2022-11-04T11:06:07.655Z,7.20
2022-11-04T11:07:07.648Z,8.00
2022-11-04T11:08:07.642Z,7.40
2022-11-04T11:09:07.677Z,7.50
2022-11-04T11:10:07.621Z,7.40
2022-11-04T11:11:07.621Z,6.90
2022-11-04T11:12:29.777Z,7.60
2022-11-04T11:13:08.913Z,7.90
2022-11-04T11:14:07.592Z,7.70
2022-11-04T11:15:12.224Z,9.40
2022-11-04T11:16:08.989Z,8.00
2022-11-04T11:17:07.596Z,8.90
2022-11-04T11:18:07.623Z,8.00
2022-11-04T11:19:07.576Z,7.80
2022-11-04T11:20:07.619Z,8.90
2022-11-04T11:21:07.545Z,6.80
2022-11-04T11:22:07.573Z,7.50
2022-11-04T11:23:07.966Z,7.00
2022-11-04T11:24:07.534Z,8.40
2022-11-04T11:25:07.601Z,7.90
2022-11-04T11:26:07.512Z,7.40
2022-11-04T11:27:07.612Z,7.50
2022-11-04T11:28:07.486Z,9.00
2022-11-04T11:29:07.476Z,8.30
2022-11-04T11:30:07.475Z,9.30
2022-11-04T11:31:07.489Z,7.00
2022-11-04T11:32:07.450Z,7.80
2022-11-04T11:33:07.788Z,7.00
2022-11-04T11:34:07.461Z,7.30
2022-11-04T11:35:11.738Z,9.10
2022-11-04T11:36:07.431Z,7.00
2022-11-04T11:37:07.460Z,5.10
2022-11-04T11:38:07.425Z,7.50
2022-11-04T11:39:07.423Z,7.50
2022-11-04T11:40:07.397Z,9.70
2022-11-04T11:42:08.412Z,7.30
2022-11-04T11:43:07.755Z,7.40
2022-11-04T11:44:07.379Z,7.60
2022-11-04T11:45:07.377Z,8.30
2022-11-04T11:46:07.349Z,7.70
2022-11-04T11:47:07.361Z,8.10
2022-11-04T11:48:07.365Z,8.10
2022-11-04T11:49:07.339Z,6.90
2022-11-04T11:50:07.323Z,7.90
2022-11-04T11:51:07.338Z,7.70
2022-11-04T11:52:07.302Z,8.50
2022-11-04T11:53:07.648Z,7.50
2022-11-04T11:54:07.284Z,8.30
2022-11-04T11:55:07.287Z,9.10
2022-11-04T11:56:07.313Z,10.40
2022-11-04T11:57:13.901Z,7.80
2022-11-04T12:01:14.091Z,8.10
2022-11-04T12:02:08.408Z,8.50
2022-11-04T12:03:07.818Z,7.30
2022-11-04T12:09:15.454Z,7.00
2022-11-04T12:10:18.250Z,8.10
2022-11-04T12:11:08.166Z,7.00
2022-11-04T12:12:07.166Z,6.40
2022-11-04T12:13:08.005Z,7.70
2022-11-04T12:14:07.163Z,7.10
2022-11-04T12:15:07.151Z,6.30
2022-11-04T12:16:07.106Z,7.20
2022-11-04T12:17:07.127Z,7.60
2022-11-04T12:18:07.093Z,7.10
2022-11-04T12:19:07.119Z,7.10
2022-11-04T12:20:13.319Z,7.90
2022-11-04T12:21:08.077Z,8.40
2022-11-04T12:22:07.062Z,7.00
2022-11-04T12:23:07.459Z,7.20
2022-11-04T12:24:07.092Z,8.00
2022-11-04T12:25:07.098Z,9.50
2022-11-04T12:26:08.041Z,6.30
2022-11-04T12:27:07.050Z,8.50
2022-11-04T12:28:07.035Z,8.30
2022-11-04T12:29:07.075Z,5.90
2022-11-04T12:30:07.015Z,7.70
2022-11-04T12:31:07.017Z,8.30
2022-11-04T12:32:06.990Z,7.20
2022-11-04T12:33:07.240Z,8.00
2022-11-04T12:34:06.973Z,8.00
2022-11-04T12:35:07.010Z,8.60
2022-11-04T12:36:06.975Z,7.30
2022-11-04T12:37:06.984Z,6.80
2022-11-04T12:38:06.941Z,7.90
2022-11-04T12:39:07.000Z,7.20
2022-11-04T12:40:06.956Z,7.40
2022-11-04T12:42:21.220Z,8.90
2022-11-04T12:43:08.216Z,7.50
2022-11-04T12:44:06.881Z,7.80
2022-11-04T12:45:06.904Z,9.20
2022-11-04T12:46:06.923Z,7.50
2022-11-04T12:47:06.901Z,7.90
2022-11-04T12:48:06.878Z,7.40
2022-11-04T12:49:07.464Z,7.20
2022-11-04T12:50:06.874Z,6.20
2022-11-04T12:51:06.883Z,9.60
2022-11-04T12:52:06.865Z,6.60
2022-11-04T12:53:07.053Z,6.50
2022-11-04T12:54:06.803Z,7.10
2022-11-04T12:55:06.795Z,9.60
2022-11-04T12:56:06.842Z,7.00
2022-11-04T12:57:06.785Z,6.40
2022-11-04T12:58:07.058Z,8.20
2022-11-04T12:59:06.767Z,8.70
2022-11-04T13:00:06.782Z,5.90
2022-11-04T13:01:09.713Z,8.20
2022-11-04T13:02:07.861Z,7.30
2022-11-04T13:03:06.969Z,7.70
2022-11-04T13:04:06.743Z,7.20
2022-11-04T13:05:06.737Z,7.80
2022-11-04T13:06:06.731Z,6.90
2022-11-04T13:07:06.779Z,7.70
2022-11-04T13:08:11.220Z,7.40
2022-11-04T13:09:07.715Z,5.60
2022-11-04T13:10:06.682Z,7.40
2022-11-04T13:11:06.716Z,5.20
2022-11-04T13:12:06.708Z,6.40
2022-11-04T13:13:06.927Z,8.00
2022-11-04T13:14:06.711Z,7.50
2022-11-04T13:15:06.668Z,6.50
2022-11-04T13:16:06.642Z,7.20
2022-11-04T13:17:06.856Z,6.90
2022-11-04T13:18:06.645Z,5.80
2022-11-04T13:19:06.705Z,5.60
2022-11-04T13:20:06.707Z,7.10
2022-11-04T13:21:06.638Z,5.10
2022-11-04T13:22:06.711Z,6.70
2022-11-04T13:23:06.632Z,7.20
2022-11-04T13:24:06.581Z,7.20
2022-11-04T13:25:06.646Z,7.40
2022-11-04T13:26:06.567Z,7.20
2022-11-04T13:27:06.583Z,6.80